Time;durP1;ratioP1;P1;durP2;ratioP2;P2;SDS_P1;SDS_P2;PMS_P1;PMS_P2;Temp;Humidity;BMP_temperature;BMP_pressure;BME280_temperature;BME280_humidity;BME280_pressure;Samples;Min_cycle;Max_cycle;Signal;HPM_P1;HPM_P2
2021/07/10 00:02:47;;;;;;;1.53;1.10;;;16.30;99.90;;;;;;4464886;28;656767;-72
2021/07/10 00:05:35;;;;;;;2.07;0.97;;;16.30;99.90;;;;;;4431846;28;656978;-72
2021/07/10 00:08:23;;;;;;;2.00;1.13;;;16.40;99.90;;;;;;4446191;28;657324;-72
2021/07/10 00:11:12;;;;;;;5.17;1.30;;;16.50;99.90;;;;;;4432999;28;656553;-72
2021/07/10 00:13:59;;;;;;;5.33;1.23;;;16.50;99.90;;;;;;4421612;28;656384;-70
2021/07/10 00:16:47;;;;;;;2.10;1.20;;;16.50;99.90;;;;;;4432332;28;658116;-72
2021/07/10 00:19:35;;;;;;;4.97;1.20;;;16.60;99.90;;;;;;4405801;28;656575;-71
2021/07/10 00:22:22;;;;;;;2.20;1.20;;;16.50;99.90;;;;;;4434567;28;657566;-71
2021/07/10 00:25:11;;;;;;;4.67;0.90;;;16.50;99.90;;;;;;4411848;28;656860;-72
2021/07/10 00:28:01;;;;;;;6.47;1.30;;;16.40;99.90;;;;;;4431104;28;656758;-70
2021/07/10 00:30:48;;;;;;;5.80;1.27;;;16.30;99.90;;;;;;4431576;28;656970;-72
2021/07/10 00:33:36;;;;;;;1.37;1.10;;;16.30;99.90;;;;;;4388634;28;656651;-71
2021/07/10 00:36:23;;;;;;;8.30;1.40;;;16.20;99.90;;;;;;4433848;28;656253;-72
2021/07/10 00:39:11;;;;;;;4.10;1.40;;;16.20;99.90;;;;;;4408585;28;657938;-72
2021/07/10 00:41:59;;;;;;;2.90;1.00;;;16.20;99.90;;;;;;4429234;28;656987;-72
2021/07/10 00:44:48;;;;;;;3.60;1.20;;;16.20;99.90;;;;;;4405710;28;658030;-72
2021/07/10 00:47:35;;;;;;;2.57;0.93;;;16.20;99.90;;;;;;4401128;28;656993;-71
2021/07/10 00:50:24;;;;;;;3.63;1.03;;;16.10;99.90;;;;;;4434736;28;656209;-72
2021/07/10 00:53:12;;;;;;;6.13;1.10;;;16.00;99.90;;;;;;4408649;28;658030;-72
2021/07/10 00:55:59;;;;;;;3.30;1.00;;;16.00;99.90;;;;;;4403077;28;656420;-70
2021/07/10 00:58:47;;;;;;;1.20;1.10;;;16.00;99.90;;;;;;4429018;28;656882;-72
2021/07/10 01:01:36;;;;;;;3.53;1.33;;;16.00;99.90;;;;;;4400331;28;656569;-71
2021/07/10 01:04:24;;;;;;;3.90;1.20;;;16.00;99.90;;;;;;4421829;28;657024;-69
2021/07/10 01:07:12;;;;;;;12.50;1.33;;;16.00;99.90;;;;;;4429388;28;656492;-71
2021/07/10 01:10:02;;;;;;;4.33;1.50;;;16.00;99.90;;;;;;4410940;28;657660;-70
2021/07/10 01:12:50;;;;;;;7.33;1.40;;;15.90;99.90;;;;;;4430170;28;656436;-69
2021/07/10 01:15:38;;;;;;;2.60;1.03;;;15.80;99.90;;;;;;4466545;28;657840;-72
2021/07/10 01:18:27;;;;;;;2.27;1.10;;;15.90;99.90;;;;;;4447864;28;657022;-72
2021/07/10 01:21:16;;;;;;;1.50;0.87;;;15.90;99.90;;;;;;4443595;28;657013;-70
2021/07/10 01:24:04;;;;;;;1.17;0.87;;;15.90;99.90;;;;;;4469344;28;656694;-72
2021/07/10 01:26:52;;;;;;;6.27;1.10;;;15.90;99.90;;;;;;4446016;28;657008;-71
2021/07/10 01:29:39;;;;;;;2.20;1.10;;;16.00;99.90;;;;;;4448756;28;656647;-70
2021/07/10 01:32:27;;;;;;;2.33;0.70;;;16.00;99.90;;;;;;4471089;28;657847;-72
2021/07/10 01:35:15;;;;;;;4.47;0.88;;;16.00;99.90;;;;;;4450003;28;656963;-69
2021/07/10 01:38:04;;;;;;;1.90;1.10;;;16.10;99.90;;;;;;4470938;28;656704;-72
2021/07/10 01:40:52;;;;;;;2.83;1.03;;;16.10;99.90;;;;;;4441762;28;657724;-72
2021/07/10 01:43:40;;;;;;;1.97;0.97;;;16.20;99.90;;;;;;4452800;28;657113;-70
2021/07/10 01:46:27;;;;;;;2.65;1.27;;;16.10;99.90;;;;;;4461340;28;655849;-72
2021/07/10 01:49:15;;;;;;;5.67;1.00;;;16.10;99.90;;;;;;4451956;28;656903;-72
2021/07/10 01:52:02;;;;;;;2.40;1.00;;;16.20;99.90;;;;;;4474820;28;657014;-72
2021/07/10 01:54:51;;;;;;;7.83;1.30;;;16.20;99.90;;;;;;4452923;28;657310;-72
2021/07/10 01:57:40;;;;;;;2.70;1.17;;;16.20;99.90;;;;;;4464462;28;657151;-69
2021/07/10 02:00:28;;;;;;;8.73;1.30;;;16.20;99.90;;;;;;4471350;28;656688;-72
2021/07/10 02:03:16;;;;;;;1.43;1.17;;;16.20;99.90;;;;;;4448858;28;657715;-71
2021/07/10 02:06:04;;;;;;;3.73;1.00;;;16.10;99.90;;;;;;4464044;28;657311;-73
2021/07/10 02:08:51;;;;;;;8.33;0.87;;;16.20;99.90;;;;;;4448349;28;657462;-73
2021/07/10 02:11:44;;;;;;;3.97;1.00;;;16.10;99.90;;;;;;4456678;28;656450;-72
2021/07/10 02:14:32;;;;;;;3.43;0.90;;;16.10;99.90;;;;;;4425345;28;657531;-71
2021/07/10 02:17:19;;;;;;;2.50;1.07;;;16.10;99.90;;;;;;4450421;28;656760;-70
2021/07/10 02:20:08;;;;;;;1.83;1.00;;;16.10;99.90;;;;;;4471013;28;658320;-73
2021/07/10 02:22:56;;;;;;;4.47;1.13;;;16.00;99.90;;;;;;4451793;28;656714;-74
2021/07/10 02:25:43;;;;;;;5.80;0.90;;;16.00;99.90;;;;;;4470934;28;656640;-74
2021/07/10 02:28:32;;;;;;;1.30;1.00;;;16.00;99.90;;;;;;4445873;28;656209;-72
2021/07/10 02:31:20;;;;;;;3.17;1.10;;;15.90;99.90;;;;;;4451607;28;656536;-72
2021/07/10 02:34:07;;;;;;;5.00;0.90;;;15.90;99.90;;;;;;4463771;28;657471;-73
2021/07/10 02:36:55;;;;;;;5.40;1.10;;;15.90;99.90;;;;;;4443229;28;656318;-71
2021/07/10 02:39:42;;;;;;;2.10;0.80;;;15.80;99.90;;;;;;4460788;28;656875;-72
2021/07/10 02:42:30;;;;;;;5.77;0.90;;;15.80;99.90;;;;;;4449047;28;656707;-72
2021/07/10 02:45:20;;;;;;;1.60;0.90;;;15.80;99.90;;;;;;4468272;28;657849;-72
2021/07/10 02:48:08;;;;;;;2.37;1.10;;;15.80;99.90;;;;;;4449017;28;656826;-72
2021/07/10 02:50:55;;;;;;;4.53;0.87;;;15.70;99.90;;;;;;4449643;28;656595;-72
2021/07/10 02:53:43;;;;;;;1.03;0.90;;;15.70;99.90;;;;;;4462116;28;656621;-72
2021/07/10 02:56:30;;;;;;;6.83;1.07;;;15.70;99.90;;;;;;4448867;28;656837;-72
2021/07/10 02:59:18;;;;;;;5.30;1.20;;;15.70;99.90;;;;;;4450002;28;657030;-72
2021/07/10 03:02:09;;;;;;;4.10;0.80;;;15.70;99.90;;;;;;4447128;28;657020;-72
2021/07/10 03:04:57;;;;;;;3.30;0.90;;;15.70;99.90;;;;;;4445663;28;657667;-72
2021/07/10 03:07:45;;;;;;;2.27;0.90;;;15.70;99.90;;;;;;4445311;28;657231;-69
2021/07/10 03:10:32;;;;;;;3.63;1.30;;;15.70;99.90;;;;;;4471463;28;657331;-72
2021/07/10 03:13:20;;;;;;;2.23;1.10;;;15.70;99.90;;;;;;4448830;28;656947;-71
2021/07/10 03:16:08;;;;;;;1.60;1.00;;;15.60;99.90;;;;;;4468818;28;657470;-71
2021/07/10 03:18:57;;;;;;;1.30;1.10;;;15.60;99.90;;;;;;4449258;28;656688;-72
2021/07/10 03:21:45;;;;;;;1.97;1.20;;;15.60;99.90;;;;;;4453087;28;656326;-71
2021/07/10 03:24:32;;;;;;;1.40;0.90;;;15.70;99.90;;;;;;4469134;28;657395;-71
2021/07/10 03:27:20;;;;;;;1.40;1.17;;;15.70;99.90;;;;;;4448508;28;657103;-71
2021/07/10 03:30:10;;;;;;;2.93;1.10;;;15.70;99.90;;;;;;4467612;28;656950;-72
2021/07/10 03:32:57;;;;;;;5.90;1.40;;;15.80;99.90;;;;;;4444232;28;657680;-71
2021/07/10 03:35:46;;;;;;;5.43;1.10;;;15.80;99.90;;;;;;4447554;28;656390;-72
2021/07/10 03:38:34;;;;;;;10.20;1.20;;;15.90;99.90;;;;;;4443008;28;656089;-71
2021/07/10 03:41:21;;;;;;;6.30;1.10;;;15.90;99.90;;;;;;4445856;28;658594;-71
2021/07/10 03:44:09;;;;;;;4.67;1.17;;;16.00;99.90;;;;;;4455385;28;656353;-70
2021/07/10 03:46:57;;;;;;;3.43;1.20;;;15.90;99.90;;;;;;4459134;28;657298;-72
2021/07/10 03:49:45;;;;;;;3.00;1.30;;;15.90;99.90;;;;;;4422310;28;657093;-71
2021/07/10 03:52:34;;;;;;;4.18;0.98;;;15.90;99.90;;;;;;4467185;28;657447;-71
2021/07/10 03:55:21;;;;;;;7.77;1.50;;;15.80;99.90;;;;;;4448285;28;657402;-71
2021/07/10 03:58:09;;;;;;;4.00;1.43;;;15.80;99.90;;;;;;4463713;28;656882;-69
2021/07/10 04:00:57;;;;;;;2.93;1.30;;;15.80;99.90;;;;;;4470909;28;657768;-72
2021/07/10 04:03:44;;;;;;;2.13;1.40;;;15.80;99.90;;;;;;4447751;28;656858;-70
2021/07/10 04:06:32;;;;;;;5.57;1.70;;;15.70;99.90;;;;;;4470264;28;658234;-71
2021/07/10 04:09:21;;;;;;;2.60;1.47;;;15.70;99.90;;;;;;4447715;28;656286;-71
2021/07/10 04:12:09;;;;;;;7.20;1.57;;;15.70;99.90;;;;;;4460346;28;657043;-71
2021/07/10 04:15:00;;;;;;;10.27;1.90;;;15.80;99.90;;;;;;4447832;28;657043;-71
2021/07/10 04:17:47;;;;;;;7.07;1.87;;;15.80;99.90;;;;;;4442194;28;658130;-71
2021/07/10 04:20:35;;;;;;;9.63;2.10;;;15.90;99.90;;;;;;4448325;28;656688;-71
2021/07/10 04:23:25;;;;;;;7.97;2.27;;;15.90;99.90;;;;;;4467595;28;657564;-71
2021/07/10 04:26:13;;;;;;;10.37;1.87;;;16.00;99.90;;;;;;4444177;28;656774;-73
2021/07/10 04:29:01;;;;;;;10.13;2.30;;;16.10;99.90;;;;;;4437673;28;658934;-72
2021/07/10 04:31:48;;;;;;;9.93;2.40;;;16.10;99.90;;;;;;4465308;28;657729;-71
2021/07/10 04:34:36;;;;;;;10.77;2.63;;;16.20;99.90;;;;;;4444289;28;657977;-71
2021/07/10 04:37:24;;;;;;;7.33;2.50;;;16.20;99.90;;;;;;4464800;28;658031;-71
2021/07/10 04:40:12;;;;;;;8.77;2.53;;;16.30;99.90;;;;;;4443082;28;657674;-72
2021/07/10 04:43:01;;;;;;;7.97;2.13;;;16.40;99.90;;;;;;4447496;28;657311;-71
2021/07/10 04:45:49;;;;;;;5.37;2.60;;;16.50;99.90;;;;;;4455068;28;656731;-69
2021/07/10 04:48:37;;;;;;;12.30;2.67;;;16.60;99.90;;;;;;4465838;28;656924;-72
2021/07/10 04:51:24;;;;;;;5.87;3.00;;;16.80;99.90;;;;;;4446284;28;657586;-70
2021/07/10 04:54:12;;;;;;;6.87;3.10;;;16.90;99.90;;;;;;4470045;28;657622;-71
2021/07/10 04:57:00;;;;;;;15.17;3.40;;;16.90;99.90;;;;;;4438926;28;656835;-70
2021/07/10 04:59:48;;;;;;;8.98;3.20;;;16.90;99.90;;;;;;4465457;28;658286;-71
2021/07/10 05:02:36;;;;;;;12.37;3.70;;;16.80;99.90;;;;;;4435187;28;657481;-72
2021/07/10 05:05:24;;;;;;;6.07;3.10;;;16.80;99.90;;;;;;4455053;28;658065;-72
2021/07/10 05:08:11;;;;;;;11.23;3.33;;;16.70;99.90;;;;;;4443195;28;658054;-71
2021/07/10 05:10:59;;;;;;;8.97;3.33;;;16.80;99.90;;;;;;4449206;28;657379;-71
2021/07/10 05:13:46;;;;;;;6.33;3.10;;;16.70;99.90;;;;;;4435074;28;656890;-72
2021/07/10 05:16:35;;;;;;;12.47;3.47;;;16.70;99.90;;;;;;4465900;28;657405;-71
2021/07/10 05:19:23;;;;;;;6.53;3.17;;;16.70;99.90;;;;;;4442479;28;659007;-71
2021/07/10 05:22:10;;;;;;;8.50;3.00;;;16.70;99.90;;;;;;4446569;28;656887;-71
2021/07/10 05:24:58;;;;;;;7.73;2.90;;;16.80;99.90;;;;;;4462161;28;657827;-72
2021/07/10 05:27:45;;;;;;;12.33;2.83;;;16.90;99.90;;;;;;4447357;28;657151;-72
2021/07/10 05:30:33;;;;;;;7.63;2.90;;;16.90;99.90;;;;;;4465339;28;657691;-71
2021/07/10 05:33:22;;;;;;;8.63;2.57;;;17.10;99.90;;;;;;4436040;28;656888;-71
2021/07/10 05:36:10;;;;;;;6.17;2.53;;;17.20;99.90;;;;;;4446299;28;656724;-72
2021/07/10 05:38:58;;;;;;;5.50;2.17;;;17.20;99.90;;;;;;4468917;28;657303;-71
2021/07/10 05:41:45;;;;;;;10.90;2.60;;;17.40;99.90;;;;;;4445423;28;656676;-71
2021/07/10 05:44:33;;;;;;;5.77;2.20;;;17.50;99.90;;;;;;4458189;28;658383;-72
2021/07/10 05:47:20;;;;;;;3.90;1.80;;;17.70;99.90;;;;;;4436358;28;656868;-74
2021/07/10 05:50:10;;;;;;;6.83;1.80;;;17.70;99.90;;;;;;4463443;28;657690;-72
2021/07/10 05:52:58;;;;;;;4.50;1.70;;;17.70;99.90;;;;;;4447101;28;656506;-71
2021/07/10 05:55:46;;;;;;;3.20;1.70;;;17.90;99.90;;;;;;4446848;28;656523;-72
2021/07/10 05:58:33;;;;;;;5.17;1.40;;;18.00;99.90;;;;;;4463962;28;658020;-73
2021/07/10 06:01:21;;;;;;;4.37;1.67;;;18.20;99.90;;;;;;4446280;28;656755;-71
2021/07/10 06:04:09;;;;;;;2.63;1.47;;;18.30;99.90;;;;;;4465685;28;657244;-73
2021/07/10 06:06:58;;;;;;;3.77;1.50;;;18.30;99.90;;;;;;4443018;28;657302;-74
2021/07/10 06:09:46;;;;;;;3.00;1.60;;;18.20;99.90;;;;;;4445395;28;657852;-70
2021/07/10 06:12:34;;;;;;;1.50;1.23;;;18.40;99.90;;;;;;4459822;28;657431;-74
2021/07/10 06:15:21;;;;;;;2.07;1.40;;;18.40;99.90;;;;;;4428135;28;657918;-70
2021/07/10 06:18:09;;;;;;;1.97;1.30;;;18.70;99.90;;;;;;4457159;28;655809;-72
2021/07/10 06:20:56;;;;;;;6.00;1.27;;;18.90;99.90;;;;;;4433999;28;658060;-72
2021/07/10 06:23:46;;;;;;;2.73;1.40;;;19.10;99.90;;;;;;4442122;28;656480;-70
2021/07/10 06:26:34;;;;;;;2.97;1.37;;;19.30;99.90;;;;;;4446845;28;656650;-70
2021/07/10 06:29:22;;;;;;;2.90;1.30;;;19.20;99.90;;;;;;4453401;28;658173;-75
2021/07/10 06:32:09;;;;;;;2.00;1.60;;;19.10;99.90;;;;;;4427737;28;656401;-69
2021/07/10 06:34:57;;;;;;;3.20;1.40;;;18.80;99.90;;;;;;4451876;28;657700;-73
2021/07/10 06:37:44;;;;;;;1.75;1.20;;;18.70;99.90;;;;;;4433593;28;656773;-69
2021/07/10 06:40:33;;;;;;;3.07;1.40;;;18.80;99.90;;;;;;4456320;28;657833;-70
2021/07/10 06:43:21;;;;;;;3.63;1.40;;;18.90;99.90;;;;;;4420937;28;658090;-71
2021/07/10 06:46:09;;;;;;;2.10;1.17;;;19.00;99.90;;;;;;4446802;28;656835;-70
2021/07/10 06:48:56;;;;;;;5.47;1.33;;;18.90;99.90;;;;;;4428409;28;658812;-70
2021/07/10 06:51:44;;;;;;;2.10;1.50;;;18.90;99.90;;;;;;4451289;28;656403;-70
2021/07/10 06:54:32;;;;;;;5.53;1.37;;;18.90;99.90;;;;;;4444173;28;657883;-69
2021/07/10 06:57:21;;;;;;;4.87;1.40;;;18.90;99.90;;;;;;4433128;28;656731;-69
2021/07/10 07:00:09;;;;;;;3.00;1.50;;;18.80;99.90;;;;;;4451682;28;656724;-70
2021/07/10 07:02:57;;;;;;;3.40;1.57;;;18.80;99.90;;;;;;4428826;28;658009;-71
2021/07/10 07:05:45;;;;;;;8.17;1.80;;;18.80;99.90;;;;;;4425577;28;656369;-69
2021/07/10 07:08:32;;;;;;;5.17;1.60;;;18.90;99.90;;;;;;4450870;28;657808;-69
2021/07/10 07:11:20;;;;;;;2.13;1.63;;;18.80;99.90;;;;;;4432963;28;656327;-71
2021/07/10 07:14:09;;;;;;;9.53;2.30;;;18.90;99.90;;;;;;4429911;28;657333;-71
2021/07/10 07:16:58;;;;;;;3.33;1.93;;;18.90;99.90;;;;;;4409013;28;657339;-69
2021/07/10 07:19:46;;;;;;;6.97;1.87;;;19.00;99.90;;;;;;4415199;28;656587;-71
2021/07/10 07:22:34;;;;;;;9.37;1.80;;;19.30;99.90;;;;;;4433456;28;656686;-69
2021/07/10 07:25:22;;;;;;;1.93;1.70;;;19.60;99.90;;;;;;4415355;28;657405;-68
2021/07/10 07:28:10;;;;;;;7.77;1.80;;;19.70;99.90;;;;;;4412937;28;656829;-69
2021/07/10 07:30:59;;;;;;;7.23;1.50;;;19.70;99.90;;;;;;4433101;28;657752;-70
2021/07/10 07:33:46;;;;;;;2.47;1.27;;;19.60;99.90;;;;;;4411406;28;657861;-69
2021/07/10 07:36:34;;;;;;;10.30;1.90;;;19.60;99.90;;;;;;4432435;28;656740;-71
2021/07/10 07:39:21;;;;;;;5.00;1.60;;;19.30;99.90;;;;;;4409517;28;657391;-71
2021/07/10 07:42:10;;;;;;;1.60;1.50;;;19.40;99.90;;;;;;4431516;28;657222;-69
2021/07/10 07:44:57;;;;;;;4.20;1.37;;;19.60;99.90;;;;;;4427393;28;657921;-69
2021/07/10 07:47:46;;;;;;;3.50;1.50;;;19.60;99.90;;;;;;4402281;28;656695;-70
2021/07/10 07:50:34;;;;;;;2.33;1.20;;;19.70;99.90;;;;;;4423175;28;656608;-70
2021/07/10 07:53:22;;;;;;;1.93;1.17;;;19.90;99.90;;;;;;4428273;28;657493;-71
2021/07/10 07:56:10;;;;;;;1.88;1.00;;;19.80;99.90;;;;;;4414859;28;656723;-70
2021/07/10 07:58:57;;;;;;;3.87;1.00;;;19.80;99.90;;;;;;4435993;28;657726;-74
2021/07/10 08:01:45;;;;;;;2.93;1.00;;;19.80;99.90;;;;;;4411084;28;656887;-72
2021/07/10 08:04:35;;;;;;;2.17;1.20;;;19.90;99.90;;;;;;4431954;28;657288;-71
2021/07/10 08:07:22;;;;;;;2.00;1.27;;;19.90;99.90;;;;;;4405702;28;657051;-70
2021/07/10 08:10:12;;;;;;;2.00;1.00;;;19.80;99.90;;;;;;4404421;28;656637;-70
2021/07/10 08:13:00;;;;;;;2.93;1.50;;;19.90;99.90;;;;;;4417647;28;656693;-69
2021/07/10 08:15:47;;;;;;;2.23;1.10;;;19.80;99.90;;;;;;4433961;28;656950;-72
2021/07/10 08:18:35;;;;;;;3.73;1.20;;;19.90;99.90;;;;;;4416892;28;657047;-69
2021/07/10 08:21:26;;;;;;;3.78;1.30;;;20.10;99.90;;;;;;4424603;28;657654;-71
2021/07/10 08:24:14;;;;;;;3.87;1.23;;;20.20;99.90;;;;;;4429011;28;656415;-69
2021/07/10 08:27:02;;;;;;;9.07;1.30;;;20.20;99.90;;;;;;4437159;28;656719;-71
2021/07/10 08:29:49;;;;;;;4.00;1.40;;;20.20;99.90;;;;;;4408004;28;657065;-71
2021/07/10 08:32:37;;;;;;;4.30;1.30;;;20.70;99.90;;;;;;4436792;28;657655;-71
2021/07/10 08:35:25;;;;;;;2.97;1.53;;;21.40;99.90;;;;;;4404064;28;656298;-68
2021/07/10 08:38:14;;;;;;;2.70;1.20;;;21.20;99.90;;;;;;4433081;28;657329;-69
2021/07/10 08:41:03;;;;;;;1.20;1.10;;;21.10;99.90;;;;;;4425776;28;657537;-69
2021/07/10 08:43:50;;;;;;;2.37;1.30;;;20.80;99.90;;;;;;4414054;28;656960;-69
2021/07/10 08:46:38;;;;;;;1.40;1.10;;;20.60;99.90;;;;;;4430190;28;656862;-69
2021/07/10 08:49:25;;;;;;;2.67;1.30;;;20.60;99.90;;;;;;4413501;28;656413;-69
2021/07/10 08:52:13;;;;;;;3.57;1.10;;;21.00;99.90;;;;;;4437192;28;656763;-68
2021/07/10 08:55:02;;;;;;;1.87;1.00;;;21.40;99.90;;;;;;4412996;28;657054;-69
2021/07/10 08:57:50;;;;;;;4.80;1.20;;;22.00;99.90;;;;;;4432475;28;656351;-69
2021/07/10 09:00:39;;;;;;;0.80;0.80;;;22.20;99.90;;;;;;4452260;28;656898;-72
2021/07/10 09:03:27;;;;;;;1.30;0.80;;;22.10;99.90;;;;;;4438506;28;656367;-70
2021/07/10 09:06:14;;;;;;;3.13;1.00;;;21.90;99.90;;;;;;4447641;28;656464;-70
2021/07/10 09:09:03;;;;;;;1.80;1.20;;;21.70;99.90;;;;;;4466363;28;656984;-70
2021/07/10 09:12:02;;;;;;;1.03;0.83;;;21.40;99.90;;;;;;4445294;28;657694;-71
2021/07/10 09:14:49;;;;;;;1.63;1.03;;;21.90;99.90;;;;;;4417269;28;657087;-70
2021/07/10 09:17:45;;;;;;;1.47;1.10;;;22.20;99.90;;;;;;4454330;28;656495;-72
2021/07/10 09:20:33;;;;;;;1.50;1.00;;;22.60;99.90;;;;;;4436957;28;656955;-72
2021/07/10 09:23:27;;;;;;;1.40;1.10;;;22.70;99.90;;;;;;4446037;28;656380;-69
2021/07/10 09:26:23;;;;;;;3.40;0.93;;;23.10;99.90;;;;;;4424038;28;656665;-70
2021/07/10 09:29:13;;;;;;;0.87;0.80;;;22.40;99.90;;;;;;4418034;28;657046;-71
2021/07/10 09:32:02;;;;;;;2.10;0.90;;;21.80;99.90;;;;;;4444617;28;656656;-72
2021/07/10 09:34:51;;;;;;;1.37;0.90;;;21.60;99.90;;;;;;4446434;28;656573;-72
2021/07/10 09:37:38;;;;;;;2.83;1.10;;;22.00;99.90;;;;;;4464075;28;656369;-71
2021/07/10 09:40:26;;;;;;;2.50;1.00;;;22.70;99.90;;;;;;4446650;28;656726;-72
2021/07/10 09:43:23;;;;;;;2.33;0.90;;;23.10;99.90;;;;;;4467171;28;656238;-70
2021/07/10 09:46:24;;;;;;;1.03;0.93;;;22.50;99.90;;;;;;4435663;28;656608;-69
2021/07/10 09:49:26;;;;;;;2.80;1.00;;;21.90;99.90;;;;;;4418252;28;657159;-70
2021/07/10 09:52:14;;;;;;;1.83;1.07;;;21.90;99.90;;;;;;4439895;28;657289;-70
2021/07/10 09:55:02;;;;;;;2.73;1.13;;;22.50;99.90;;;;;;4450876;28;657502;-70
2021/07/10 09:57:50;;;;;;;1.10;1.00;;;22.80;99.90;;;;;;4449713;28;656745;-69
2021/07/10 10:00:39;;;;;;;1.65;1.00;;;22.80;99.90;;;;;;4464409;28;656967;-70
2021/07/10 10:03:34;;;;;;;0.80;0.80;;;22.50;99.90;;;;;;4449052;28;658239;-70
2021/07/10 10:06:29;;;;;;;1.23;1.00;;;22.20;99.90;;;;;;4450268;28;656428;-70
2021/07/10 10:09:17;;;;;;;2.47;0.93;;;22.10;99.90;;;;;;4410642;28;656476;-69
2021/07/10 10:12:07;;;;;;;0.90;0.90;;;22.00;99.90;;;;;;4448017;28;656957;-69
2021/07/10 10:14:57;;;;;;;2.10;1.10;;;22.20;99.90;;;;;;4445591;28;656801;-71
2021/07/10 10:17:44;;;;;;;1.00;0.90;;;22.70;99.90;;;;;;4455239;28;656404;-70
2021/07/10 10:20:34;;;;;;;0.97;0.90;;;23.10;99.90;;;;;;4473173;28;657866;-70
2021/07/10 10:23:22;;;;;;;2.87;1.23;;;23.50;99.90;;;;;;4445541;28;658243;-71
2021/07/10 10:26:10;;;;;;;3.07;1.10;;;23.30;99.90;;;;;;4448992;28;656437;-69
2021/07/10 10:28:57;;;;;;;2.10;1.00;;;23.70;99.90;;;;;;4471791;28;657302;-69
2021/07/10 10:31:45;;;;;;;1.53;1.00;;;23.90;99.90;;;;;;4449771;28;656614;-70
2021/07/10 10:34:33;;;;;;;1.53;0.90;;;23.60;99.90;;;;;;4469033;28;656713;-72
2021/07/10 10:37:23;;;;;;;2.73;1.03;;;23.40;99.90;;;;;;4449623;28;656341;-71
2021/07/10 10:40:11;;;;;;;1.73;0.97;;;23.10;99.90;;;;;;4443707;28;656880;-71
2021/07/10 10:43:00;;;;;;;2.03;1.07;;;22.70;99.90;;;;;;4460661;28;656499;-71
2021/07/10 10:45:47;;;;;;;2.93;1.13;;;22.80;99.90;;;;;;4435040;28;657091;-73
2021/07/10 10:48:36;;;;;;;1.40;1.00;;;23.00;99.90;;;;;;4447894;28;657075;-71
2021/07/10 10:51:27;;;;;;;4.43;0.90;;;22.90;99.90;;;;;;4463130;28;656662;-72
2021/07/10 10:54:29;;;;;;;1.30;0.80;;;23.30;99.90;;;;;;4421830;28;656495;-71
2021/07/10 10:57:16;;;;;;;2.40;1.00;;;23.20;99.90;;;;;;4410319;28;657011;-71
2021/07/10 11:00:16;;;;;;;0.70;0.70;;;23.20;99.90;;;;;;4464695;28;656466;-71
2021/07/10 11:03:08;;;;;;;4.07;1.00;;;23.60;99.90;;;;;;4445380;28;656929;-71
2021/07/10 11:05:57;;;;;;;1.33;1.03;;;24.00;99.90;;;;;;4449377;28;656403;-71
2021/07/10 11:08:52;;;;;;;4.20;0.80;;;24.10;99.90;;;;;;4454772;28;656845;-71
2021/07/10 11:11:41;;;;;;;1.97;0.80;;;24.10;99.90;;;;;;4420307;28;656345;-70
2021/07/10 11:14:31;;;;;;;0.90;0.67;;;24.20;99.90;;;;;;4451708;28;656483;-70
2021/07/10 11:17:20;;;;;;;1.80;0.60;;;24.00;99.90;;;;;;4429379;28;657182;-69
2021/07/10 11:20:10;;;;;;;0.87;0.80;;;24.20;99.90;;;;;;4445420;28;657665;-71
2021/07/10 11:23:00;;;;;;;0.93;0.83;;;24.10;99.90;;;;;;4445633;28;657528;-70
2021/07/10 11:26:09;;;;;;;2.73;0.80;;;24.10;99.90;;;;;;4444429;28;656744;-72
2021/07/10 11:28:58;;;;;;;0.90;0.90;;;24.10;99.90;;;;;;4406093;28;656748;-70
2021/07/10 11:31:45;;;;;;;1.37;0.90;;;24.10;99.90;;;;;;4421957;28;656610;-73
2021/07/10 11:34:34;;;;;;;1.07;0.97;;;24.20;99.90;;;;;;4451733;28;656762;-73
2021/07/10 11:37:22;;;;;;;2.00;1.15;;;23.40;99.90;;;;;;4426232;28;657547;-72
2021/07/10 11:40:11;;;;;;;1.10;1.00;;;23.10;99.90;;;;;;4432950;28;656680;-72
2021/07/10 11:43:03;;;;;;;1.10;1.00;;;23.30;99.90;;;;;;4449397;28;656919;-72
2021/07/10 11:45:52;;;;;;;2.83;1.10;;;23.50;99.90;;;;;;4398889;28;657283;-72
2021/07/10 11:48:39;;;;;;;2.80;1.20;;;24.10;99.90;;;;;;4441722;28;656944;-69
2021/07/10 11:51:27;;;;;;;0.97;0.90;;;24.10;99.90;;;;;;4451034;28;657767;-72
2021/07/10 11:54:19;;;;;;;3.80;0.87;;;24.30;99.90;;;;;;4432495;28;656916;-71
2021/07/10 11:57:07;;;;;;;1.40;0.90;;;23.90;99.90;;;;;;4432713;28;657500;-72
2021/07/10 11:59:55;;;;;;;2.17;1.30;;;23.80;99.90;;;;;;4432311;28;656617;-72
2021/07/10 12:02:44;;;;;;;4.53;1.00;;;23.80;99.90;;;;;;4450826;28;657304;-71
2021/07/10 12:05:33;;;;;;;1.33;0.90;;;24.60;99.90;;;;;;4429339;28;657163;-73
2021/07/10 12:08:21;;;;;;;1.07;0.90;;;24.70;99.90;;;;;;4430507;28;656743;-72
2021/07/10 12:11:10;;;;;;;1.30;1.03;;;24.50;99.90;;;;;;4447314;28;656768;-73
2021/07/10 12:14:04;;;;;;;3.80;1.45;;;24.90;99.90;;;;;;4421558;28;657194;-72
2021/07/10 12:16:52;;;;;;;1.92;1.00;;;24.70;99.90;;;;;;4444149;28;656907;-72
2021/07/10 12:19:41;;;;;;;1.50;1.30;;;24.10;99.90;;;;;;4448797;28;656831;-71
2021/07/10 12:22:29;;;;;;;1.50;1.03;;;24.40;99.90;;;;;;4467606;28;656662;-72
2021/07/10 12:25:16;;;;;;;1.20;1.08;;;24.90;99.90;;;;;;4444753;28;658706;-72
2021/07/10 12:28:06;;;;;;;1.52;0.85;;;24.90;99.90;;;;;;4435755;28;656459;-72
2021/07/10 12:30:56;;;;;;;1.20;1.10;;;25.40;99.90;;;;;;4420911;28;657318;-70
2021/07/10 12:33:45;;;;;;;1.05;1.05;;;25.40;99.90;;;;;;4449792;28;657045;-72
2021/07/10 12:36:35;;;;;;;1.00;0.98;;;25.60;99.90;;;;;;4426535;28;657623;-73
2021/07/10 12:39:23;;;;;;;2.97;1.17;;;25.60;99.90;;;;;;4426486;28;656540;-72
2021/07/10 12:42:12;;;;;;;2.15;1.25;;;25.70;99.90;;;;;;4431116;28;657301;-72
2021/07/10 12:44:59;;;;;;;3.97;1.10;;;25.60;99.90;;;;;;4439873;28;656687;-70
2021/07/10 12:47:47;;;;;;;1.15;1.00;;;26.00;99.90;;;;;;4453690;28;657939;-72
2021/07/10 12:50:35;;;;;;;1.60;0.90;;;26.50;99.90;;;;;;4430632;28;656575;-71
2021/07/10 12:53:30;;;;;;;1.92;1.05;;;27.00;99.90;;;;;;4453131;28;657861;-72
2021/07/10 12:56:27;;;;;;;3.15;0.90;;;27.00;99.90;;;;;;4426496;28;656859;-72
2021/07/10 12:59:20;;;;;;;1.52;1.20;;;26.90;99.90;;;;;;4410127;28;656054;-70
2021/07/10 13:02:07;;;;;;;2.08;0.93;;;27.50;99.90;;;;;;4408809;28;657165;-72
2021/07/10 13:04:56;;;;;;;3.78;0.93;;;27.40;99.90;;;;;;4413472;28;656540;-72
2021/07/10 13:07:43;;;;;;;2.42;0.90;;;26.70;99.90;;;;;;4432436;28;656380;-72
2021/07/10 13:10:32;;;;;;;5.20;1.10;;;26.90;99.90;;;;;;4413414;28;657476;-72
2021/07/10 13:13:22;;;;;;;1.95;0.90;;;27.30;99.90;;;;;;4412506;28;656471;-72
2021/07/10 13:16:10;;;;;;;2.33;1.40;;;27.60;99.90;;;;;;4412261;28;656767;-69
2021/07/10 13:18:59;;;;;;;1.13;1.10;;;27.30;99.90;;;;;;4427678;28;657000;-72
2021/07/10 13:21:50;;;;;;;1.40;1.30;;;27.70;99.90;;;;;;4408657;28;657723;-72
2021/07/10 13:24:37;;;;;;;2.83;1.20;;;27.70;99.90;;;;;;4407208;28;657503;-73
2021/07/10 13:27:31;;;;;;;1.60;1.10;;;27.30;99.90;;;;;;4400257;28;656921;-72
2021/07/10 13:30:19;;;;;;;1.20;1.20;;;27.60;99.90;;;;;;4391272;28;656555;-73
2021/07/10 13:33:06;;;;;;;4.60;1.05;;;27.30;99.90;;;;;;4408631;28;657838;-72
2021/07/10 13:36:05;;;;;;;1.02;0.90;;;26.60;99.90;;;;;;4431583;28;656311;-73
2021/07/10 13:38:53;;;;;;;3.45;1.20;;;26.70;99.90;;;;;;4403141;28;656178;-73
2021/07/10 13:41:41;;;;;;;2.90;1.25;;;26.50;99.90;;;;;;4412596;28;656861;-72
2021/07/10 13:44:31;;;;;;;4.30;1.23;;;26.60;99.90;;;;;;4431078;28;656456;-72
2021/07/10 13:47:20;;;;;;;1.38;1.15;;;27.00;99.90;;;;;;4434368;28;656231;-72
2021/07/10 13:50:08;;;;;;;1.77;1.20;;;27.40;99.90;;;;;;4408348;28;656970;-73
2021/07/10 13:52:56;;;;;;;1.80;1.30;;;27.40;99.90;;;;;;4411831;28;656693;-73
2021/07/10 13:55:43;;;;;;;2.15;1.10;;;27.50;99.90;;;;;;4429519;28;656350;-72
2021/07/10 13:58:31;;;;;;;2.88;1.30;;;27.70;99.90;;;;;;4412035;28;656858;-72
2021/07/10 14:01:22;;;;;;;4.20;1.20;;;27.90;99.90;;;;;;4461525;28;656749;-72
2021/07/10 14:04:13;;;;;;;4.22;1.40;;;27.60;99.90;;;;;;4424417;28;656854;-70
2021/07/10 14:07:01;;;;;;;2.70;1.45;;;27.20;99.90;;;;;;4447266;28;656712;-73
2021/07/10 14:09:49;;;;;;;1.73;1.30;;;27.30;99.90;;;;;;4467127;28;656862;-73
2021/07/10 14:12:36;;;;;;;4.82;1.20;;;27.10;99.90;;;;;;4430291;28;657495;-72
2021/07/10 14:15:25;;;;;;;2.63;1.50;;;27.10;99.90;;;;;;4447906;28;656614;-69
2021/07/10 14:18:14;;;;;;;5.25;1.30;;;27.40;99.90;;;;;;4448172;28;657196;-72
2021/07/10 14:21:01;;;;;;;3.08;1.30;;;28.00;99.90;;;;;;4425678;28;657687;-72
2021/07/10 14:23:49;;;;;;;1.85;1.20;;;28.90;98.80;;;;;;4443310;28;656673;-70
2021/07/10 14:26:37;;;;;;;1.92;1.20;;;29.10;98.70;;;;;;4443718;28;657579;-72